createdAt,value
2023-03-19T00:02:40.273Z,96.51
2023-03-19T00:05:07.567Z,97.72
2023-03-19T00:07:34.535Z,95.99
2023-03-19T00:10:02.932Z,95.54
2023-03-19T00:12:29.770Z,97.73
2023-03-19T00:14:56.560Z,96.74
2023-03-19T00:17:23.370Z,95.48
2023-03-19T00:19:50.628Z,94.20
2023-03-19T00:22:17.491Z,95.78
2023-03-19T00:24:44.835Z,95.50
2023-03-19T00:27:12.031Z,95.23
2023-03-19T00:29:38.929Z,93.64
2023-03-19T00:32:05.944Z,95.36
2023-03-19T00:34:32.821Z,95.68
2023-03-19T00:36:59.797Z,94.98
2023-03-19T00:39:26.886Z,94.39
2023-03-19T00:41:53.820Z,94.64
2023-03-19T00:44:20.660Z,97.05
2023-03-19T00:46:47.536Z,94.85
2023-03-19T00:49:14.429Z,94.61
2023-03-19T00:51:43.885Z,97.24
2023-03-19T00:54:12.555Z,96.29
2023-03-19T00:56:39.541Z,94.94
2023-03-19T00:59:06.962Z,94.06
2023-03-19T01:01:34.575Z,96.02
2023-03-19T01:04:01.916Z,96.50
2023-03-19T01:06:28.874Z,94.49
2023-03-19T01:08:56.129Z,94.19
2023-03-19T01:11:25.892Z,95.53
2023-03-19T01:13:52.897Z,95.31
2023-03-19T01:16:19.945Z,93.85
2023-03-19T01:18:47.282Z,94.86
2023-03-19T01:21:14.692Z,95.74
2023-03-19T01:23:47.094Z,94.38
2023-03-19T01:26:14.112Z,92.99
2023-03-19T01:29:03.571Z,93.85
2023-03-19T01:31:30.503Z,96.48
2023-03-19T01:34:32.700Z,93.79
2023-03-19T01:37:07.827Z,93.57
2023-03-19T01:39:34.789Z,93.68
2023-03-19T01:42:06.831Z,94.87
2023-03-19T01:44:45.121Z,93.93
2023-03-19T01:47:38.324Z,93.38
2023-03-19T01:50:54.081Z,94.32
2023-03-19T01:53:47.717Z,94.88
2023-03-19T01:56:27.975Z,93.16
2023-03-19T01:59:17.132Z,93.44
2023-03-19T02:02:05.532Z,97.62
2023-03-19T02:04:36.137Z,92.69
2023-03-19T02:07:04.734Z,92.71
2023-03-19T02:09:32.187Z,94.66
2023-03-19T02:12:02.013Z,93.45
2023-03-19T02:14:29.607Z,93.62
2023-03-19T02:16:57.002Z,93.18
2023-03-19T02:20:06.274Z,94.00
2023-03-19T02:22:33.737Z,94.79
2023-03-19T02:25:07.409Z,94.22
2023-03-19T02:27:37.155Z,94.11
2023-03-19T02:30:27.985Z,94.96
2023-03-19T02:32:56.434Z,94.75
2023-03-19T02:35:30.313Z,93.72
2023-03-19T02:37:57.237Z,96.20
2023-03-19T02:40:29.635Z,100.00
2023-03-19T02:42:56.822Z,98.28
2023-03-19T02:45:29.535Z,95.98
2023-03-19T02:47:56.709Z,94.60
2023-03-19T02:50:24.152Z,96.28
2023-03-19T02:52:51.030Z,95.56
2023-03-19T02:55:18.610Z,95.75
2023-03-19T02:57:45.997Z,93.21
2023-03-19T03:00:13.724Z,96.45
2023-03-19T03:02:41.106Z,95.21
2023-03-19T03:05:09.318Z,94.00
2023-03-19T03:07:37.802Z,94.54
2023-03-19T03:10:04.956Z,96.24
2023-03-19T03:12:32.589Z,96.94
2023-03-19T03:14:59.625Z,94.51
2023-03-19T03:17:27.051Z,94.62
2023-03-19T03:19:53.881Z,97.55
2023-03-19T03:22:20.717Z,94.68
2023-03-19T03:24:47.558Z,93.47
2023-03-19T03:27:14.634Z,95.18
2023-03-19T03:29:41.716Z,95.99
2023-03-19T03:32:08.951Z,96.46
2023-03-19T03:34:36.445Z,94.21
2023-03-19T03:37:03.255Z,95.02
2023-03-19T03:39:30.232Z,94.85
2023-03-19T03:41:57.176Z,98.57
2023-03-19T03:44:24.416Z,93.05
2023-03-19T03:46:51.976Z,94.06
2023-03-19T03:49:18.845Z,94.33
2023-03-19T03:51:45.818Z,94.76
2023-03-19T03:54:12.781Z,93.02
2023-03-19T03:56:39.804Z,93.44
2023-03-19T03:59:07.869Z,96.78
2023-03-19T04:01:34.731Z,94.58
2023-03-19T04:04:01.862Z,92.46
2023-03-19T04:06:29.682Z,94.32
2023-03-19T04:09:11.853Z,94.22
2023-03-19T04:11:39.315Z,93.88
2023-03-19T04:14:08.211Z,92.91
2023-03-19T04:16:36.832Z,92.03
2023-03-19T04:19:03.721Z,96.59
2023-03-19T04:21:30.669Z,92.63
2023-03-19T04:23:57.688Z,91.52
2023-03-19T04:26:24.598Z,94.50
2023-03-19T04:28:51.753Z,95.14
2023-03-19T04:31:18.953Z,97.30
2023-03-19T04:33:46.075Z,93.15
2023-03-19T04:36:14.235Z,93.06
2023-03-19T04:38:41.751Z,95.46
2023-03-19T04:41:09.070Z,95.91
2023-03-19T04:43:39.901Z,92.59
2023-03-19T04:46:09.721Z,92.60
2023-03-19T04:48:38.020Z,93.42
2023-03-19T04:51:05.416Z,94.83
2023-03-19T04:53:33.141Z,93.04
2023-03-19T04:55:59.995Z,92.88
2023-03-19T04:58:27.696Z,95.10
2023-03-19T05:01:00.002Z,93.09
2023-03-19T05:03:50.125Z,92.18
2023-03-19T05:06:20.226Z,94.02
2023-03-19T05:08:47.334Z,93.90
2023-03-19T05:11:16.787Z,93.38
2023-03-19T05:14:01.995Z,92.70
2023-03-19T05:16:35.945Z,93.58
2023-03-19T05:19:03.312Z,93.45
2023-03-19T05:21:35.264Z,93.25
2023-03-19T05:24:04.825Z,93.51
2023-03-19T05:26:35.583Z,91.53
2023-03-19T05:29:10.939Z,92.10
2023-03-19T05:31:55.553Z,92.90
2023-03-19T05:34:22.466Z,90.61
2023-03-19T05:36:50.089Z,90.07
2023-03-19T05:39:19.662Z,91.43
2023-03-19T05:41:47.106Z,90.48
2023-03-19T05:44:18.840Z,90.05
2023-03-19T05:47:06.005Z,88.40
2023-03-19T05:49:36.026Z,84.26
2023-03-19T05:52:04.636Z,85.18
2023-03-19T05:54:32.009Z,85.03
2023-03-19T05:57:06.013Z,83.45
2023-03-19T06:00:02.399Z,83.23
2023-03-19T06:02:33.048Z,83.89
2023-03-19T06:05:23.333Z,82.85
2023-03-19T06:07:53.273Z,82.52
2023-03-19T06:10:40.664Z,81.38
2023-03-19T06:13:10.951Z,81.64
2023-03-19T06:16:00.163Z,80.94
2023-03-19T06:18:32.175Z,79.19
2023-03-19T06:21:02.042Z,80.54
2023-03-19T06:23:28.916Z,83.13
2023-03-19T06:25:55.805Z,83.34
2023-03-19T06:28:25.449Z,82.33
2023-03-19T06:30:54.932Z,83.67
2023-03-19T06:33:51.510Z,83.13
2023-03-19T06:36:18.749Z,81.64
2023-03-19T06:38:45.979Z,84.31
2023-03-19T06:41:12.992Z,83.66
2023-03-19T06:46:11.460Z,82.37
2023-03-19T06:48:38.950Z,81.41
2023-03-19T06:51:06.290Z,80.69
2023-03-19T06:53:33.947Z,79.67
2023-03-19T06:56:01.397Z,83.08
2023-03-19T06:58:28.534Z,83.50
2023-03-19T07:00:56.851Z,79.08
2023-03-19T07:03:24.473Z,79.48
2023-03-19T07:05:51.929Z,80.26
2023-03-19T07:08:18.851Z,81.23
2023-03-19T07:10:45.739Z,80.16
2023-03-19T07:13:12.750Z,82.43
2023-03-19T07:15:39.571Z,84.17
2023-03-19T07:18:06.654Z,78.49
2023-03-19T07:20:33.962Z,78.59
2023-03-19T07:23:00.961Z,81.45
2023-03-19T07:39:54.837Z,78.79
2023-03-19T07:42:21.841Z,78.73
2023-03-19T07:44:48.668Z,77.16
2023-03-19T07:47:27.860Z,77.12
2023-03-19T07:49:55.818Z,76.84
2023-03-19T07:52:22.938Z,76.71
2023-03-19T07:54:50.714Z,75.70
2023-03-19T07:57:17.714Z,74.42
2023-03-19T07:59:44.642Z,75.49
2023-03-19T08:02:13.480Z,76.78
2023-03-19T08:04:41.476Z,76.25
2023-03-19T08:07:10.848Z,73.87
2023-03-19T08:09:37.980Z,72.01
2023-03-19T08:12:05.812Z,71.69
2023-03-19T08:14:35.873Z,70.61
2023-03-19T08:17:02.836Z,70.42
2023-03-19T08:19:29.808Z,70.96
2023-03-19T08:21:56.687Z,70.25
2023-03-19T08:24:23.725Z,70.58
2023-03-19T08:26:50.787Z,69.36
2023-03-19T08:29:19.061Z,69.36
2023-03-19T08:31:46.532Z,71.22
2023-03-19T08:34:13.433Z,72.27
2023-03-19T08:36:40.607Z,71.39
2023-03-19T08:39:08.890Z,70.98
2023-03-19T08:41:36.041Z,72.72
2023-03-19T08:44:03.027Z,69.60
2023-03-19T08:46:30.386Z,67.49
2023-03-19T08:48:57.520Z,66.84
2023-03-19T08:51:26.183Z,64.85
2023-03-19T08:53:53.858Z,64.13
2023-03-19T08:56:20.855Z,63.32
2023-03-19T08:58:48.201Z,62.70
2023-03-19T09:01:16.006Z,62.39
2023-03-19T09:03:45.454Z,62.39
2023-03-19T09:06:14.647Z,64.70
2023-03-19T09:08:42.340Z,69.91
2023-03-19T09:11:11.059Z,70.38
2023-03-19T09:13:38.032Z,68.12
2023-03-19T09:16:05.916Z,71.62
2023-03-19T09:18:34.081Z,70.20
2023-03-19T09:21:01.079Z,68.11
2023-03-19T09:23:28.514Z,65.27
2023-03-19T09:25:55.521Z,68.87
2023-03-19T09:28:23.101Z,70.27
2023-03-19T09:30:51.538Z,67.12
2023-03-19T09:33:20.511Z,67.56
2023-03-19T09:35:52.829Z,71.22
2023-03-19T09:38:21.334Z,70.23
2023-03-19T09:40:54.459Z,71.10
2023-03-19T09:43:42.062Z,70.40
2023-03-19T09:46:19.490Z,69.34
2023-03-19T09:49:01.010Z,70.18
2023-03-19T09:51:55.990Z,70.93
2023-03-19T09:54:27.655Z,69.68
2023-03-19T09:56:54.913Z,70.36
2023-03-19T09:59:27.800Z,72.84
2023-03-19T10:02:20.124Z,69.28
2023-03-19T10:05:20.840Z,69.52
2023-03-19T10:07:47.753Z,67.81
2023-03-19T10:10:37.696Z,69.03
2023-03-19T10:13:10.656Z,68.34
2023-03-19T10:15:40.323Z,67.76
2023-03-19T10:18:21.517Z,68.10
2023-03-19T10:21:06.654Z,67.04
2023-03-19T10:23:42.106Z,66.86
2023-03-19T10:26:13.145Z,66.12
2023-03-19T10:28:43.998Z,66.66
2023-03-19T10:31:36.833Z,68.84
2023-03-19T10:34:22.022Z,68.26
2023-03-19T10:36:49.055Z,65.03
2023-03-19T10:39:17.212Z,66.69
2023-03-19T10:42:02.962Z,67.93
2023-03-19T10:44:42.457Z,65.38
2023-03-19T10:47:14.831Z,68.40
2023-03-19T10:49:42.353Z,66.39
2023-03-19T10:52:25.286Z,68.24
2023-03-19T10:55:12.672Z,67.82
2023-03-19T10:57:43.053Z,69.02
2023-03-19T11:00:24.257Z,69.88
2023-03-19T11:02:54.216Z,67.67
2023-03-19T11:05:32.622Z,68.14
2023-03-19T11:08:05.922Z,66.87
2023-03-19T11:10:36.296Z,67.61
2023-03-19T11:13:21.680Z,67.72
2023-03-19T11:15:49.301Z,68.63
2023-03-19T11:18:19.251Z,69.47
2023-03-19T11:20:54.318Z,67.92
2023-03-19T11:23:21.351Z,67.59
2023-03-19T11:25:53.515Z,67.22
2023-03-19T11:28:26.270Z,66.12
2023-03-19T11:30:53.510Z,68.36
2023-03-19T11:33:44.037Z,67.46
2023-03-19T11:36:22.254Z,69.21
2023-03-19T11:39:23.154Z,67.74
2023-03-19T11:41:56.036Z,65.06
2023-03-19T11:44:47.484Z,63.13
2023-03-19T11:47:39.572Z,63.05
2023-03-19T11:50:18.780Z,64.70
2023-03-19T11:53:24.772Z,66.86
2023-03-19T11:55:57.738Z,63.95
2023-03-19T11:58:52.550Z,63.79
2023-03-19T12:01:43.289Z,64.61
2023-03-19T12:04:29.102Z,64.98
2023-03-19T12:07:13.954Z,61.29
2023-03-19T12:10:26.572Z,63.25
2023-03-19T12:13:50.775Z,63.34
2023-03-19T12:16:29.535Z,62.06
2023-03-19T12:19:14.694Z,61.84
2023-03-19T12:22:03.319Z,61.23
2023-03-19T12:25:07.724Z,61.75
2023-03-19T12:28:02.193Z,60.38
2023-03-19T12:30:54.056Z,60.75
2023-03-19T12:33:34.754Z,58.89
2023-03-19T12:36:05.401Z,57.21
2023-03-19T12:38:43.687Z,56.84
2023-03-19T12:41:15.122Z,57.38
2023-03-19T12:44:03.186Z,58.45
2023-03-19T12:46:38.912Z,57.83
2023-03-19T12:49:16.424Z,57.17
2023-03-19T12:51:52.834Z,55.46
2023-03-19T12:54:35.733Z,56.59
2023-03-19T12:57:39.986Z,60.70
2023-03-19T13:00:20.350Z,57.99
2023-03-19T13:02:57.749Z,56.24
2023-03-19T13:05:39.261Z,57.52
2023-03-19T13:08:16.957Z,58.40
2023-03-19T13:10:43.882Z,59.00
2023-03-19T13:13:35.777Z,57.58
2023-03-19T13:16:21.197Z,60.28
2023-03-19T13:18:57.422Z,63.20
2023-03-19T13:21:32.902Z,62.84
2023-03-19T13:24:06.933Z,64.57
2023-03-19T13:26:35.089Z,67.98
2023-03-19T13:29:28.453Z,67.97
2023-03-19T13:32:06.102Z,66.46
2023-03-19T13:34:36.109Z,67.35
2023-03-19T13:37:23.974Z,69.59
2023-03-19T13:39:51.053Z,67.57
2023-03-19T13:42:41.466Z,65.05
2023-03-19T13:45:20.284Z,64.04
2023-03-19T13:47:49.561Z,64.45
2023-03-19T13:50:19.298Z,64.50
2023-03-19T13:52:50.552Z,65.26
2023-03-19T13:55:32.799Z,67.38
2023-03-19T13:58:37.821Z,67.47
2023-03-19T14:01:07.136Z,67.07
2023-03-19T14:03:37.310Z,65.72
2023-03-19T14:06:04.759Z,66.92
2023-03-19T14:08:47.404Z,69.81
2023-03-19T14:11:29.116Z,74.04
2023-03-19T14:14:00.710Z,70.67
2023-03-19T14:16:34.620Z,69.22
2023-03-19T14:19:05.125Z,71.64
2023-03-19T14:22:08.032Z,71.59
2023-03-19T14:24:58.806Z,71.94
2023-03-19T14:27:33.457Z,72.50
2023-03-19T14:30:09.582Z,73.14
2023-03-19T14:32:42.674Z,72.73
2023-03-19T14:35:17.264Z,72.81
2023-03-19T14:37:50.382Z,72.84
2023-03-19T14:40:24.673Z,73.05
2023-03-19T14:43:22.500Z,72.75
2023-03-19T14:46:05.785Z,74.31
2023-03-19T14:48:51.343Z,73.81
2023-03-19T14:51:36.417Z,72.94
2023-03-19T14:54:42.797Z,73.50
2023-03-19T14:57:27.081Z,73.39
2023-03-19T14:59:54.904Z,73.59
2023-03-19T15:02:30.600Z,73.08
2023-03-19T15:05:00.512Z,73.89
2023-03-19T15:07:40.271Z,74.13
2023-03-19T15:10:13.904Z,74.15
2023-03-19T15:13:25.391Z,74.71
2023-03-19T15:16:10.975Z,75.05
2023-03-19T15:18:38.814Z,75.14
2023-03-19T15:21:06.435Z,76.57
2023-03-19T15:23:34.011Z,79.71
2023-03-19T15:26:03.309Z,81.48
2023-03-19T15:28:45.846Z,81.67
2023-03-19T15:31:29.862Z,81.91
2023-03-19T15:33:58.723Z,82.36
2023-03-19T15:36:31.700Z,82.38
2023-03-19T15:39:11.120Z,82.77
2023-03-19T15:41:43.388Z,83.53
2023-03-19T15:44:17.592Z,84.41
2023-03-19T15:46:46.027Z,85.24
2023-03-19T15:49:37.762Z,85.85
2023-03-19T15:52:11.371Z,86.53
2023-03-19T15:54:38.752Z,86.56
2023-03-19T15:57:07.008Z,87.01
2023-03-19T15:59:34.200Z,86.97
2023-03-19T16:02:03.865Z,87.34
2023-03-19T16:04:38.541Z,88.80
2023-03-19T16:07:23.610Z,93.21
2023-03-19T16:09:50.689Z,96.22
2023-03-19T16:12:37.341Z,99.15
2023-03-19T16:15:33.127Z,100.00
2023-03-19T16:18:31.082Z,100.00
2023-03-19T16:21:36.435Z,100.00
2023-03-19T16:24:14.924Z,100.00
2023-03-19T16:26:44.430Z,100.00
2023-03-19T16:29:22.687Z,100.00
2023-03-19T16:31:52.577Z,100.00
2023-03-19T16:34:32.265Z,100.00
2023-03-19T16:37:00.757Z,100.00
2023-03-19T16:39:30.657Z,100.00
2023-03-19T16:42:28.750Z,100.00
2023-03-19T16:44:56.437Z,100.00
2023-03-19T16:47:23.782Z,100.00
2023-03-19T16:49:50.900Z,100.00
2023-03-19T16:52:22.331Z,100.00
2023-03-19T16:54:49.789Z,100.00
2023-03-19T16:57:17.558Z,100.00
2023-03-19T16:59:46.088Z,100.00
2023-03-19T17:02:18.351Z,100.00
2023-03-19T17:04:46.046Z,100.00
2023-03-19T17:07:13.685Z,100.00
2023-03-19T17:09:40.659Z,100.00
2023-03-19T17:12:13.019Z,100.00
2023-03-19T17:14:39.959Z,100.00
2023-03-19T17:17:22.618Z,100.00
2023-03-19T17:19:49.683Z,100.00
2023-03-19T17:22:16.753Z,100.00
2023-03-19T17:24:44.081Z,100.00
2023-03-19T17:27:11.823Z,100.00
2023-03-19T17:29:38.842Z,100.00
2023-03-19T17:32:13.539Z,100.00
2023-03-19T17:34:40.463Z,100.00
2023-03-19T17:37:13.068Z,100.00
2023-03-19T17:39:41.840Z,100.00
2023-03-19T17:42:23.476Z,100.00
2023-03-19T17:44:50.730Z,100.00
2023-03-19T17:47:19.148Z,100.00
2023-03-19T17:49:46.445Z,100.00
2023-03-19T17:52:16.316Z,100.00
2023-03-19T17:54:43.854Z,100.00
2023-03-19T17:57:13.373Z,100.00
2023-03-19T17:59:40.429Z,100.00
2023-03-19T18:02:32.885Z,100.00
2023-03-19T18:05:00.334Z,100.00
2023-03-19T18:07:27.206Z,100.00
2023-03-19T18:09:54.056Z,100.00
2023-03-19T18:12:21.084Z,100.00
2023-03-19T18:14:48.013Z,100.00
2023-03-19T18:17:17.125Z,100.00
2023-03-19T18:19:47.516Z,100.00
2023-03-19T18:22:18.693Z,100.00
2023-03-19T18:24:46.061Z,100.00
2023-03-19T18:27:12.980Z,100.00
2023-03-19T18:29:39.936Z,99.49
2023-03-19T18:32:13.741Z,99.83
2023-03-19T18:34:40.659Z,99.69
2023-03-19T18:37:07.591Z,98.82
2023-03-19T18:39:38.123Z,98.92
2023-03-19T18:42:05.040Z,97.91
2023-03-19T18:44:31.942Z,98.91
2023-03-19T18:46:58.872Z,97.95
2023-03-19T18:49:27.659Z,97.89
2023-03-19T18:52:02.654Z,97.66
2023-03-19T18:54:31.282Z,97.95
2023-03-19T18:57:00.506Z,97.19
2023-03-19T18:59:30.909Z,97.17
2023-03-19T19:02:01.895Z,96.44
2023-03-19T19:04:29.927Z,96.61
2023-03-19T19:06:57.043Z,96.63
2023-03-19T19:09:23.915Z,97.34
2023-03-19T19:11:50.868Z,96.50
2023-03-19T19:14:23.825Z,95.59
2023-03-19T19:16:51.765Z,95.50
2023-03-19T19:19:24.922Z,95.03
2023-03-19T19:21:52.112Z,94.12
2023-03-19T19:24:19.277Z,95.24
2023-03-19T19:26:48.352Z,96.64
2023-03-19T19:41:36.748Z,100.00
2023-03-19T19:44:04.158Z,100.00
2023-03-19T19:46:32.036Z,99.41
2023-03-19T19:48:59.562Z,99.72
2023-03-19T19:51:29.000Z,97.67
2023-03-19T19:53:55.951Z,98.23
2023-03-19T19:56:25.766Z,100.00
2023-03-19T19:58:54.888Z,97.76
2023-03-19T20:01:24.922Z,99.32
2023-03-19T20:03:52.805Z,98.82
2023-03-19T20:06:20.459Z,96.87
2023-03-19T20:08:50.722Z,96.77
2023-03-19T20:11:20.367Z,97.16
2023-03-19T20:13:51.552Z,95.12
2023-03-19T20:16:20.104Z,96.58
2023-03-19T20:18:47.698Z,95.89
2023-03-19T20:21:16.050Z,96.84
2023-03-19T20:23:45.187Z,96.03
2023-03-19T20:26:17.516Z,95.14
2023-03-19T20:28:45.084Z,96.70
2023-03-19T20:31:26.470Z,95.79
2023-03-19T20:33:53.398Z,96.24
2023-03-19T20:36:20.503Z,96.42
2023-03-19T20:38:47.418Z,94.98
2023-03-19T20:41:23.680Z,96.39
2023-03-19T20:43:52.164Z,96.13
2023-03-19T20:46:21.095Z,97.90
2023-03-19T20:48:48.842Z,96.75
2023-03-19T20:51:21.758Z,97.14
2023-03-19T20:53:49.933Z,97.67
2023-03-19T20:56:20.341Z,97.68
2023-03-19T20:58:47.401Z,97.29
2023-03-19T21:01:15.627Z,96.93
2023-03-19T21:03:42.809Z,96.89
2023-03-19T21:06:18.101Z,99.48
2023-03-19T21:08:58.830Z,96.76
2023-03-19T21:11:40.909Z,97.31
2023-03-19T21:14:15.970Z,97.64
2023-03-19T21:16:42.826Z,97.09
2023-03-19T21:19:09.779Z,96.85
2023-03-19T21:21:37.683Z,96.74
2023-03-19T21:24:08.131Z,96.52
2023-03-19T21:26:38.154Z,96.69
2023-03-19T21:29:08.337Z,96.80
2023-03-19T21:31:35.630Z,96.62
2023-03-19T21:34:02.633Z,97.26
2023-03-19T21:36:29.615Z,97.09
2023-03-19T21:38:56.730Z,97.33
2023-03-19T21:41:30.492Z,97.38
2023-03-19T21:44:03.183Z,97.38
2023-03-19T21:46:31.733Z,97.78
2023-03-19T21:48:59.340Z,97.10
2023-03-19T21:51:29.573Z,96.81
2023-03-19T21:53:56.567Z,96.18
2023-03-19T21:56:32.590Z,96.59
2023-03-19T21:59:10.408Z,96.82
2023-03-19T22:01:37.278Z,97.18
2023-03-19T22:04:04.120Z,97.52
2023-03-19T22:06:31.390Z,96.14
2023-03-19T22:08:59.386Z,97.26
2023-03-19T22:11:32.453Z,98.41
2023-03-19T22:14:14.969Z,95.79
2023-03-19T22:16:42.604Z,97.10
2023-03-19T22:19:14.436Z,95.87
2023-03-19T22:21:41.443Z,97.25
2023-03-19T22:24:08.433Z,96.72
2023-03-19T22:26:38.700Z,96.96
2023-03-19T22:29:13.680Z,95.46
2023-03-19T22:31:41.309Z,95.50
2023-03-19T22:34:14.958Z,95.90
2023-03-19T22:36:41.942Z,94.40
2023-03-19T22:39:09.269Z,95.29
2023-03-19T22:41:41.069Z,95.42
2023-03-19T22:44:13.299Z,95.75
2023-03-19T22:46:40.439Z,94.88
2023-03-19T22:49:13.641Z,95.30
2023-03-19T22:51:40.556Z,95.48
2023-03-19T22:54:07.484Z,95.80
2023-03-19T22:56:34.258Z,95.15
2023-03-19T22:59:01.363Z,95.43
2023-03-19T23:01:34.929Z,96.82
2023-03-19T23:04:18.174Z,96.60
2023-03-19T23:06:45.386Z,97.95
2023-03-19T23:09:17.942Z,98.59
2023-03-19T23:11:45.289Z,97.92
2023-03-19T23:14:26.339Z,96.83
2023-03-19T23:19:28.457Z,97.05
2023-03-19T23:21:55.957Z,97.46
2023-03-19T23:24:24.356Z,98.45
2023-03-19T23:26:54.399Z,98.43
2023-03-19T23:29:29.855Z,97.98
2023-03-19T23:31:59.672Z,98.36
2023-03-19T23:34:28.750Z,97.45
2023-03-19T23:36:56.347Z,97.63
2023-03-19T23:39:24.125Z,97.37
2023-03-19T23:41:54.633Z,97.91
2023-03-19T23:44:22.105Z,98.05
2023-03-19T23:46:51.605Z,97.80
2023-03-19T23:49:28.920Z,97.29
2023-03-19T23:51:56.718Z,97.67
2023-03-19T23:54:34.501Z,97.35
2023-03-19T23:57:06.706Z,98.01
2023-03-19T23:59:37.150Z,98.01
